Time;durP1;ratioP1;P1;durP2;ratioP2;P2;SDS_P1;SDS_P2;PMS_P1;PMS_P2;Temp;Humidity;BMP_temperature;BMP_pressure;BME280_temperature;BME280_humidity;BME280_pressure;Samples;Min_cycle;Max_cycle;Signal;HPM_P1;HPM_P2
2022/09/12 00:02:04;;;;;;;;;4.00;3.75;;;;;12.86;80.37;100073.81;5033764;28;8824;-60
2022/09/12 00:04:32;;;;;;;;;8.50;8.00;;;;;12.85;80.29;100065.91;5032859;28;9530;-60
2022/09/12 00:06:59;;;;;;;;;9.75;9.25;;;;;12.82;80.25;100066.16;5032409;28;8817;-60
2022/09/12 00:09:27;;;;;;;;;8.50;7.50;;;;;12.79;80.07;100061.09;5032859;28;8905;-60
2022/09/12 00:11:54;;;;;;;;;9.00;9.00;;;;;12.78;80.56;100070.09;5032792;28;9070;-60
2022/09/12 00:14:22;;;;;;;;;3.50;3.00;;;;;12.76;80.24;100064.03;5032605;28;8829;-60
2022/09/12 00:16:49;;;;;;;;;9.00;8.00;;;;;12.75;80.49;100062.34;5031926;28;8820;-60
2022/09/12 00:19:17;;;;;;;;;11.25;9.50;;;;;12.73;80.24;100061.63;5032170;28;9332;-60
2022/09/12 00:21:46;;;;;;;;;6.75;6.75;;;;;12.76;80.14;100066.72;5032280;28;8828;-60
2022/09/12 00:24:13;;;;;;;;;9.00;8.50;;;;;12.78;80.52;100064.75;5031994;28;8917;-60
2022/09/12 00:26:41;;;;;;;;;12.00;9.50;;;;;12.75;79.60;100057.84;5031641;28;8907;-60
2022/09/12 00:29:08;;;;;;;;;9.50;9.50;;;;;12.74;80.24;100057.97;5033134;28;8917;-61
2022/09/12 00:31:36;;;;;;;;;11.50;9.25;;;;;12.71;80.53;100058.25;5033177;28;8882;-60
2022/09/12 00:34:03;;;;;;;;;12.00;10.00;;;;;12.70;80.58;100046.69;5032197;28;8895;-60
2022/09/12 00:36:31;;;;;;;;;9.50;9.00;;;;;12.69;80.54;100049.53;5032644;28;8882;-60
2022/09/12 00:38:58;;;;;;;;;8.00;6.75;;;;;12.67;80.07;100056.81;5030987;28;8832;-60
2022/09/12 00:41:26;;;;;;;;;7.00;6.25;;;;;12.64;80.29;100047.25;5031567;28;8841;-60
2022/09/12 00:43:54;;;;;;;;;9.00;8.00;;;;;12.61;80.20;100052.84;5032434;28;8913;-60
2022/09/12 00:46:21;;;;;;;;;6.00;4.50;;;;;12.61;80.07;100044.00;5032052;28;8906;-61
2022/09/12 00:48:49;;;;;;;;;8.00;8.00;;;;;12.62;80.13;100045.69;5031706;28;8929;-61
2022/09/12 00:51:16;;;;;;;;;9.00;8.50;;;;;12.60;80.47;100039.63;5031848;28;8836;-61
2022/09/12 00:53:44;;;;;;;;;6.50;5.00;;;;;12.57;80.48;100035.41;5032828;28;8813;-61
2022/09/12 00:56:11;;;;;;;;;7.00;7.00;;;;;12.56;80.54;100033.72;5032571;28;8861;-62
2022/09/12 00:58:39;;;;;;;;;12.25;10.00;;;;;12.56;80.41;100023.03;5033067;28;9592;-60
2022/09/12 01:01:06;;;;;;;;;6.25;6.00;;;;;12.55;80.56;100023.97;5033831;28;8836;-62
2022/09/12 01:03:34;;;;;;;;;9.75;7.00;;;;;12.52;80.16;100021.59;5033167;28;8848;-60
2022/09/12 01:06:02;;;;;;;;;7.00;6.25;;;;;12.50;80.59;100020.00;5033129;28;8856;-60
2022/09/12 01:08:29;;;;;;;;;4.50;2.00;;;;;12.47;80.55;100018.44;5033899;28;8841;-61
2022/09/12 01:10:56;;;;;;;;;7.00;7.00;;;;;12.48;80.20;100019.31;5032856;28;8821;-61
2022/09/12 01:13:24;;;;;;;;;9.50;7.00;;;;;12.45;80.46;100009.72;5033632;28;8901;-61
2022/09/12 01:15:53;;;;;;;;;6.75;6.25;;;;;12.46;80.57;100005.25;5033384;28;8845;-61
2022/09/12 01:18:20;;;;;;;;;6.50;5.50;;;;;12.45;80.64;100003.56;5032913;28;8921;-62
2022/09/12 01:20:48;;;;;;;;;7.00;6.00;;;;;12.45;80.36;100003.56;5032428;28;8903;-60
2022/09/12 01:23:15;;;;;;;;;6.00;4.50;;;;;12.45;79.81;100008.91;5033043;28;8905;-62
2022/09/12 01:25:43;;;;;;;;;6.50;5.50;;;;;12.43;80.34;100003.69;5033827;28;8836;-62
2022/09/12 01:28:11;;;;;;;;;10.00;8.00;;;;;12.42;80.59;100010.00;5033455;28;8836;-62
2022/09/12 01:30:38;;;;;;;;;9.00;9.00;;;;;12.42;80.59;100009.16;5033548;28;8829;-61
2022/09/12 01:33:05;;;;;;;;;7.00;7.00;;;;;12.42;80.36;100010.00;5032955;28;8833;-60
2022/09/12 01:35:34;;;;;;;;;8.00;7.00;;;;;12.42;80.14;100014.50;5032888;28;8845;-60
2022/09/12 01:38:01;;;;;;;;;7.00;6.75;;;;;12.41;80.32;100010.13;5032835;28;8825;-60
2022/09/12 01:40:29;;;;;;;;;9.50;9.00;;;;;12.42;79.92;100009.16;5032965;28;8836;-60
2022/09/12 01:42:57;;;;;;;;;9.00;7.00;;;;;12.41;80.14;100008.31;5033000;28;8825;-61
2022/09/12 01:45:25;;;;;;;;;7.00;7.00;;;;;12.41;80.28;100008.31;5032959;28;8832;-60
2022/09/12 01:47:54;;;;;;;;;9.50;9.00;;;;;12.42;80.27;100004.66;5032735;28;8921;-61
2022/09/12 01:50:21;;;;;;;;;9.00;7.50;;;;;12.41;80.26;100000.31;5032838;28;8901;-60
2022/09/12 01:52:49;;;;;;;;;9.00;8.00;;;;;12.43;79.93;99997.47;5032477;28;9668;-59
2022/09/12 01:55:16;;;;;;;;;9.00;7.50;;;;;12.42;80.19;99993.13;5032612;28;8828;-61
2022/09/12 01:57:44;;;;;;;;;2.00;1.50;;;;;12.43;79.76;100003.69;5032578;28;8832;-61
2022/09/12 02:00:11;;;;;;;;;12.75;9.75;;;;;12.39;80.29;99991.56;5032453;28;8893;-61
2022/09/12 02:02:39;;;;;;;;;6.25;6.00;;;;;12.38;79.92;99989.03;5032939;28;8839;-61
2022/09/12 02:05:07;;;;;;;;;7.00;7.00;;;;;12.37;80.02;99992.66;5032498;28;8841;-59
2022/09/12 02:07:34;;;;;;;;;9.00;9.00;;;;;12.38;80.30;99986.38;5032573;28;8837;-61
2022/09/12 02:10:03;;;;;;;;;10.50;9.75;;;;;12.40;80.20;99989.75;5032060;28;8836;-60
2022/09/12 02:12:30;;;;;;;;;9.25;8.50;;;;;12.37;79.90;99988.19;5032553;28;8852;-60
2022/09/12 02:14:58;;;;;;;;;7.00;7.00;;;;;12.34;80.21;99996.47;5032621;28;8893;-61
2022/09/12 02:17:26;;;;;;;;;9.75;9.00;;;;;12.29;79.72;99990.66;5032176;28;8924;-60
2022/09/12 02:19:53;;;;;;;;;6.50;6.50;;;;;12.25;80.00;99997.22;5032171;28;9521;-60
2022/09/12 02:22:21;;;;;;;;;10.00;9.00;;;;;12.20;80.64;99991.47;5032278;28;8913;-62
2022/09/12 02:24:48;;;;;;;;;7.00;6.75;;;;;12.18;80.29;99988.09;5032729;28;9499;-60
2022/09/12 02:27:16;;;;;;;;;13.00;11.50;;;;;12.16;80.51;99991.84;5032899;28;8924;-59
2022/09/12 02:29:43;;;;;;;;;12.00;11.00;;;;;12.19;80.58;99991.59;5032231;28;8913;-60
2022/09/12 02:32:11;;;;;;;;;7.75;7.75;;;;;12.19;80.62;99988.91;5032646;28;8825;-60
2022/09/12 02:34:38;;;;;;;;;3.00;2.00;;;;;12.18;80.11;99989.91;5031489;28;8925;-61
2022/09/12 02:37:06;;;;;;;;;10.25;9.25;;;;;12.16;80.87;99987.34;5032646;28;8960;-60
2022/09/12 02:39:33;;;;;;;;;12.50;9.50;;;;;12.15;80.50;99984.81;5032365;28;8841;-60
2022/09/12 02:42:01;;;;;;;;;7.75;6.25;;;;;12.14;80.36;99983.09;5032599;28;8848;-60
2022/09/12 02:44:29;;;;;;;;;9.00;7.00;;;;;12.13;80.36;99976.94;5032491;28;8905;-60
2022/09/12 02:46:56;;;;;;;;;7.50;6.50;;;;;12.11;80.17;99975.38;5031459;28;8828;-60
2022/09/12 02:49:24;;;;;;;;;8.50;7.00;;;;;12.08;79.95;99970.31;5032395;28;8864;-60
2022/09/12 02:51:51;;;;;;;;;9.75;9.50;;;;;12.07;80.59;99971.28;5031741;28;8897;-61
2022/09/12 02:54:19;;;;;;;;;10.00;10.00;;;;;12.04;80.27;99975.06;5031783;28;9598;-60
2022/09/12 02:56:46;;;;;;;;;9.00;6.50;;;;;12.02;80.71;99974.31;5031888;28;8805;-60
2022/09/12 02:59:14;;;;;;;;;10.75;9.50;;;;;12.00;80.45;99967.44;5031515;28;8868;-60
2022/09/12 03:01:41;;;;;;;;;6.00;6.00;;;;;11.98;80.76;99971.22;5032429;28;9502;-60
2022/09/12 03:04:09;;;;;;;;;6.50;5.50;;;;;11.96;80.82;99963.34;5031525;28;8825;-61
2022/09/12 03:06:36;;;;;;;;;9.25;8.00;;;;;11.93;80.84;99960.94;5031570;28;8845;-59
2022/09/12 03:09:04;;;;;;;;;8.00;8.00;;;;;11.93;80.18;99966.28;5032216;28;9509;-60
2022/09/12 03:11:31;;;;;;;;;8.25;7.50;;;;;11.92;80.64;99964.59;5031441;28;8917;-60
2022/09/12 03:14:00;;;;;;;;;8.00;7.00;;;;;11.93;80.70;99963.59;5031621;28;8886;-62
2022/09/12 03:16:28;;;;;;;;;12.50;9.50;;;;;11.92;80.87;99961.06;5030457;28;8905;-60
2022/09/12 03:18:56;;;;;;;;;9.50;9.50;;;;;11.91;80.78;99954.03;5031080;28;8841;-60
2022/09/12 03:21:23;;;;;;;;;11.50;7.00;;;;;11.90;80.59;99963.03;5030293;28;8837;-61
2022/09/12 03:23:51;;;;;;;;;9.50;8.50;;;;;11.91;80.79;99957.53;5030971;28;9534;-61
2022/09/12 03:26:18;;;;;;;;;7.00;6.50;;;;;11.92;80.34;99964.59;5031626;28;8897;-60
2022/09/12 03:28:46;;;;;;;;;3.50;3.25;;;;;11.92;80.52;99955.72;5030885;28;8909;-61
2022/09/12 03:31:14;;;;;;;;;6.50;6.50;;;;;11.89;80.79;99954.16;5030068;28;8889;-60
2022/09/12 03:33:41;;;;;;;;;6.75;6.00;;;;;11.88;80.82;99960.47;5030829;28;8829;-60
2022/09/12 03:36:09;;;;;;;;;6.50;6.50;;;;;11.83;80.28;99962.66;5031069;28;8901;-61
2022/09/12 03:38:36;;;;;;;;;9.50;8.00;;;;;11.79;80.90;99958.59;5029576;28;8832;-60
2022/09/12 03:41:04;;;;;;;;;6.00;5.50;;;;;11.75;81.12;99954.47;5029888;28;8841;-59
2022/09/12 03:43:31;;;;;;;;;3.50;3.50;;;;;11.72;80.72;99956.53;5032330;28;8821;-60
2022/09/12 03:45:59;;;;;;;;;6.50;6.25;;;;;11.68;80.58;99955.97;5032852;28;8914;-60
2022/09/12 03:48:26;;;;;;;;;7.50;5.75;;;;;11.67;80.90;99961.44;5032916;28;8920;-60
2022/09/12 03:50:54;;;;;;;;;8.50;6.00;;;;;11.65;80.79;99958.03;5032425;28;9550;-60
2022/09/12 03:53:21;;;;;;;;;9.00;8.00;;;;;11.62;80.89;99956.50;5033668;28;8833;-60
2022/09/12 03:55:49;;;;;;;;;7.00;7.00;;;;;11.63;80.74;99952.00;5033527;28;8841;-60
2022/09/12 03:58:16;;;;;;;;;8.50;8.00;;;;;11.61;81.01;99952.09;5032989;28;8916;-60
2022/09/12 04:00:44;;;;;;;;;7.00;6.25;;;;;11.60;81.31;99955.75;5033284;28;8925;-60
2022/09/12 04:03:12;;;;;;;;;6.25;6.00;;;;;11.59;81.21;99954.06;5033237;28;8909;-61
2022/09/12 04:05:39;;;;;;;;;9.00;8.50;;;;;11.59;80.66;99959.41;5033093;28;8849;-61
2022/09/12 04:08:07;;;;;;;;;7.00;7.00;;;;;11.60;80.85;99962.94;5032722;28;8845;-60
2022/09/12 04:10:34;;;;;;;;;5.00;4.50;;;;;11.60;81.15;99961.09;5030312;28;8865;-59
2022/09/12 04:13:02;;;;;;;;;6.75;6.75;;;;;11.61;80.80;99962.78;5029553;28;8941;-60
2022/09/12 04:15:29;;;;;;;;;12.75;9.25;;;;;11.63;80.34;99958.19;5030405;28;8909;-62
2022/09/12 04:17:57;;;;;;;;;10.00;9.00;;;;;11.64;80.74;99962.53;5030723;28;9615;-61
2022/09/12 04:20:31;;;;;;;;;9.50;7.50;;;;;11.65;80.79;99953.56;5030414;28;8971;-60
2022/09/12 04:22:59;;;;;;;;;6.50;6.00;;;;;11.70;80.22;99951.38;5031009;28;8898;-62
2022/09/12 04:25:27;;;;;;;;;9.50;7.00;;;;;11.73;80.55;99951.09;5031998;28;8813;-60
2022/09/12 04:27:54;;;;;;;;;12.50;9.50;;;;;11.76;80.39;99950.81;5031377;28;8833;-60
2022/09/12 04:30:22;;;;;;;;;9.00;8.00;;;;;11.80;80.60;99951.41;5031354;28;9834;-59
2022/09/12 04:32:50;;;;;;;;;10.25;9.00;;;;;11.79;80.09;99949.72;5030778;28;8849;-60
2022/09/12 04:35:17;;;;;;;;;3.00;1.50;;;;;11.79;80.51;99950.59;5030687;28;8845;-61
2022/09/12 04:37:45;;;;;;;;;9.75;8.50;;;;;11.79;80.47;99949.72;5031083;28;8950;-60
2022/09/12 04:40:12;;;;;;;;;10.75;9.00;;;;;11.78;80.27;99948.91;5030768;28;8832;-61
2022/09/12 04:42:40;;;;;;;;;8.00;7.00;;;;;11.78;80.46;99945.38;5029986;28;9508;-59
2022/09/12 04:45:08;;;;;;;;;7.50;6.75;;;;;11.78;80.21;99940.91;5030428;28;8849;-60
2022/09/12 04:47:35;;;;;;;;;1.00;1.00;;;;;11.77;80.06;99944.53;5029791;28;8857;-59
2022/09/12 04:50:04;;;;;;;;;7.00;6.75;;;;;11.77;80.09;99941.00;5028548;28;8922;-62
2022/09/12 04:52:31;;;;;;;;;9.00;6.75;;;;;11.76;80.32;99937.47;5028429;28;8825;-60
2022/09/12 04:54:59;;;;;;;;;9.75;9.25;;;;;11.76;79.92;99939.31;5028531;28;8832;-60
2022/09/12 04:57:26;;;;;;;;;9.25;7.50;;;;;11.72;80.16;99935.22;5028753;28;8916;-62
2022/09/12 04:59:54;;;;;;;;;6.50;6.50;;;;;11.67;80.08;99938.25;5028492;28;8922;-61
2022/09/12 05:02:22;;;;;;;;;8.00;6.00;;;;;11.63;80.56;99939.50;5028312;28;8876;-59
2022/09/12 05:04:50;;;;;;;;;6.50;6.00;;;;;11.59;80.78;99938.06;5028437;28;8857;-60
2022/09/12 05:07:18;;;;;;;;;11.00;8.50;;;;;11.57;80.63;99950.66;5029032;28;8828;-61
2022/09/12 05:09:45;;;;;;;;;5.75;5.50;;;;;11.55;80.45;99935.75;5030118;28;8868;-60
2022/09/12 05:12:13;;;;;;;;;8.00;7.00;;;;;11.53;81.09;99938.53;5028176;28;8845;-60
2022/09/12 05:14:41;;;;;;;;;6.00;5.50;;;;;11.53;81.05;99933.19;5028643;28;8930;-60
2022/09/12 05:17:08;;;;;;;;;12.75;10.00;;;;;11.54;80.64;99940.22;5028704;28;8832;-60
2022/09/12 05:19:36;;;;;;;;;9.25;8.50;;;;;11.55;80.62;99939.28;5027411;28;8832;-59
2022/09/12 05:22:05;;;;;;;;;5.50;4.00;;;;;11.59;80.92;99938.06;5028183;28;8917;-59
2022/09/12 05:24:34;;;;;;;;;6.50;4.00;;;;;11.63;80.65;99941.31;5028707;28;8844;-60
2022/09/12 05:27:02;;;;;;;;;7.50;7.50;;;;;11.66;80.43;99941.06;5028547;28;9249;-62
2022/09/12 05:29:30;;;;;;;;;10.00;9.50;;;;;11.70;79.98;99927.34;5028880;28;8824;-59
2022/09/12 05:31:58;;;;;;;;;7.00;6.25;;;;;11.74;80.30;99931.44;5028152;28;8909;-59
2022/09/12 05:34:26;;;;;;;;;11.00;8.50;;;;;11.81;79.95;99932.63;5028364;28;8841;-61
2022/09/12 05:36:54;;;;;;;;;10.00;9.25;;;;;11.86;79.98;99925.06;5029296;28;8841;-60
2022/09/12 05:39:22;;;;;;;;;8.00;7.00;;;;;11.92;79.91;99929.03;5028613;28;9498;-60
2022/09/12 05:41:49;;;;;;;;;11.50;9.75;;;;;12.00;79.86;99930.09;5027892;28;8836;-60
2022/09/12 05:44:17;;;;;;;;;8.00;6.25;;;;;12.09;79.38;99921.28;5028743;28;8841;-60
2022/09/12 05:46:45;;;;;;;;;8.50;8.50;;;;;12.18;79.39;99925.81;5027998;28;8932;-61
2022/09/12 05:49:13;;;;;;;;;9.50;9.50;;;;;12.25;78.86;99924.31;5028969;28;8905;-60
2022/09/12 05:51:41;;;;;;;;;9.00;8.50;;;;;12.33;79.09;99919.16;5028783;28;8845;-60
2022/09/12 05:54:08;;;;;;;;;8.50;7.75;;;;;12.40;79.11;99922.97;5028559;28;8833;-61
2022/09/12 05:56:36;;;;;;;;;6.00;6.00;;;;;12.47;78.94;99916.94;5029305;28;8953;-60
2022/09/12 05:59:04;;;;;;;;;7.50;6.25;;;;;12.57;78.08;99925.00;5028973;28;8840;-61
2022/09/12 06:01:32;;;;;;;;;6.00;4.50;;;;;12.66;78.76;99926.88;5029186;28;8829;-59
2022/09/12 06:04:00;;;;;;;;;14.00;13.00;;;;;12.78;77.95;99925.78;5027423;28;8842;-60
2022/09/12 06:06:27;;;;;;;;;10.50;8.50;;;;;12.89;77.49;99923.00;5026178;28;8919;-59
2022/09/12 06:08:55;;;;;;;;;11.00;9.00;;;;;13.00;77.48;99926.44;5026511;28;8841;-60
2022/09/12 06:11:23;;;;;;;;;12.50;12.00;;;;;13.12;77.76;99921.81;5024799;28;8837;-59
2022/09/12 06:13:51;;;;;;;;;7.00;6.00;;;;;13.22;77.15;99920.00;5026085;28;8845;-59
2022/09/12 06:16:19;;;;;;;;;10.25;10.25;;;;;13.33;76.89;99927.88;5029170;28;8917;-60
2022/09/12 06:18:46;;;;;;;;;9.75;8.00;;;;;13.43;76.97;99918.06;5028213;28;9004;-60
2022/09/12 06:21:14;;;;;;;;;7.50;7.50;;;;;13.51;76.90;99916.34;5029543;28;9525;-59
2022/09/12 06:23:42;;;;;;;;;9.50;7.50;;;;;13.64;76.75;99911.56;5030061;28;8924;-60
2022/09/12 06:26:09;;;;;;;;;12.00;11.00;;;;;13.73;76.53;99910.69;5030219;28;8841;-61
2022/09/12 06:28:37;;;;;;;;;11.00;10.00;;;;;13.82;76.09;99909.00;5029994;28;8853;-59
2022/09/12 06:31:04;;;;;;;;;6.50;6.50;;;;;13.92;76.03;99910.69;5028330;28;8837;-61
2022/09/12 06:33:32;;;;;;;;;6.00;5.50;;;;;14.01;75.84;99908.97;5028949;28;8829;-60
2022/09/12 06:36:00;;;;;;;;;10.00;9.50;;;;;14.12;75.75;99906.13;5029932;28;8821;-62
2022/09/12 06:38:27;;;;;;;;;7.50;7.00;;;;;14.22;75.64;99910.50;5031025;28;8902;-62
2022/09/12 06:40:56;;;;;;;;;9.75;9.75;;;;;14.33;75.44;99906.81;5030763;28;8975;-61
2022/09/12 06:43:23;;;;;;;;;11.00;9.25;;;;;14.47;75.46;99906.31;5029576;28;8833;-60
2022/09/12 06:45:51;;;;;;;;;11.50;11.00;;;;;14.63;75.07;99903.88;5029620;28;9257;-62
2022/09/12 06:48:18;;;;;;;;;12.75;11.50;;;;;14.81;74.46;99900.22;5030324;28;8979;-60
2022/09/12 06:50:46;;;;;;;;;3.00;2.00;;;;;15.00;74.17;99901.94;5030113;28;8825;-62
2022/09/12 06:53:13;;;;;;;;;11.75;10.50;;;;;15.17;74.12;99899.28;5029900;28;8825;-62
2022/09/12 06:55:42;;;;;;;;;7.25;7.25;;;;;15.34;73.83;99897.63;5029343;28;8945;-62
2022/09/12 06:58:09;;;;;;;;;15.75;14.50;;;;;15.51;73.15;99900.31;5030347;28;8857;-61
2022/09/12 07:00:37;;;;;;;;;9.50;8.00;;;;;15.71;73.03;99892.94;5029762;28;8829;-62
2022/09/12 07:03:06;;;;;;;;;9.00;8.50;;;;;15.90;72.31;99895.41;5029804;28;8845;-62
2022/09/12 07:05:34;;;;;;;;;7.75;6.75;;;;;16.10;72.50;99896.91;5030351;28;8941;-59
2022/09/12 07:08:02;;;;;;;;;9.00;9.00;;;;;16.25;71.86;99891.66;5030237;28;8840;-62
2022/09/12 07:10:30;;;;;;;;;8.00;7.00;;;;;16.37;72.08;99897.63;5027967;28;8905;-62
2022/09/12 07:12:59;;;;;;;;;8.00;7.00;;;;;16.50;71.84;99900.72;5026068;28;8853;-62
2022/09/12 07:15:26;;;;;;;;;10.00;9.75;;;;;16.61;71.34;99906.66;5026645;28;8849;-60
2022/09/12 07:17:54;;;;;;;;;7.00;7.00;;;;;16.72;71.48;99898.28;5028187;28;8825;-60
2022/09/12 07:20:22;;;;;;;;;10.00;9.00;;;;;16.82;71.34;99901.72;5031750;28;8829;-62
2022/09/12 07:22:49;;;;;;;;;10.40;9.20;;;;;16.91;71.38;99905.25;5031951;28;9521;-61
2022/09/12 07:25:17;;;;;;;;;6.20;4.00;;;;;16.98;71.05;99908.97;5032024;28;8967;-60
2022/09/12 07:27:45;;;;;;;;;13.60;13.00;;;;;17.04;71.11;99911.03;5032102;28;8851;-61
2022/09/12 07:30:17;;;;;;;;;10.80;10.40;;;;;17.11;70.62;99902.16;5032579;28;9528;-60
2022/09/12 07:32:45;;;;;;;;;11.00;11.00;;;;;17.19;71.25;99902.16;5032798;28;8829;-62
2022/09/12 07:35:12;;;;;;;;;9.20;9.00;;;;;17.29;70.63;99910.91;5031960;28;8857;-61
2022/09/12 07:37:40;;;;;;;;;10.20;9.40;;;;;17.40;70.64;99907.09;5033824;28;8903;-62
2022/09/12 07:40:09;;;;;;;;;6.40;6.40;;;;;17.50;70.43;99907.78;5032880;28;8841;-61
2022/09/12 07:42:36;;;;;;;;;9.60;9.60;;;;;17.61;70.39;99916.38;5031427;28;8903;-61
2022/09/12 07:45:04;;;;;;;;;9.00;9.00;;;;;17.71;70.73;99906.31;5032760;28;8820;-60
2022/09/12 07:47:31;;;;;;;;;7.40;7.40;;;;;17.82;70.03;99908.66;5033293;28;9873;-60
2022/09/12 07:49:59;;;;;;;;;9.40;8.60;;;;;17.95;69.83;99909.00;5032930;28;8933;-61
2022/09/12 07:52:26;;;;;;;;;9.80;9.80;;;;;18.08;69.66;99916.56;5032695;28;8821;-60
2022/09/12 07:54:54;;;;;;;;;12.40;10.40;;;;;18.25;69.51;99916.38;5032856;28;8817;-61
2022/09/12 07:57:22;;;;;;;;;9.00;7.80;;;;;18.42;69.39;99911.78;5032830;28;9590;-60
2022/09/12 07:59:49;;;;;;;;;11.20;10.40;;;;;18.57;69.33;99910.91;5031906;28;8872;-60
2022/09/12 08:02:20;;;;;;;;;9.00;8.20;;;;;18.69;68.88;99909.53;5031896;28;8962;-62
2022/09/12 08:04:48;;;;;;;;;14.20;11.60;;;;;18.77;68.54;99904.09;5030926;28;8849;-60
2022/09/12 08:07:17;;;;;;;;;12.60;11.20;;;;;18.80;68.71;99901.06;5032160;28;8837;-61
2022/09/12 08:09:45;;;;;;;;;9.00;8.00;;;;;18.83;69.05;99899.88;5031047;28;8836;-60
2022/09/12 08:12:12;;;;;;;;;11.60;11.60;;;;;18.89;69.18;99904.56;5029153;28;8933;-61
2022/09/12 08:14:40;;;;;;;;;12.40;11.40;;;;;18.94;68.65;99911.13;5029010;28;8829;-61
2022/09/12 08:17:07;;;;;;;;;15.00;12.00;;;;;18.98;68.87;99898.94;5028287;28;8861;-62
2022/09/12 08:19:35;;;;;;;;;9.80;9.60;;;;;19.03;69.14;99895.72;5028182;28;8857;-62
2022/09/12 08:22:03;;;;;;;;;11.20;9.80;;;;;19.09;69.04;99900.41;5029298;28;8921;-62
2022/09/12 08:24:31;;;;;;;;;9.40;8.00;;;;;19.15;68.88;99903.25;5031037;28;8844;-60
2022/09/12 08:26:58;;;;;;;;;10.00;9.00;;;;;19.22;68.81;99908.81;5030687;28;8844;-61
2022/09/12 08:29:26;;;;;;;;;8.40;5.80;;;;;19.27;68.78;99907.25;5028693;28;9521;-61
2022/09/12 08:31:53;;;;;;;;;10.80;8.80;;;;;19.33;68.66;99902.97;5027837;28;8832;-63
2022/09/12 08:34:25;;;;;;;;;11.20;10.00;;;;;19.39;68.45;99896.88;5028793;28;8928;-60
2022/09/12 08:36:53;;;;;;;;;9.20;8.20;;;;;19.46;68.65;99897.84;5029075;28;8844;-62
2022/09/12 08:39:21;;;;;;;;;10.40;9.00;;;;;19.54;68.23;99897.78;5028389;28;8913;-61
2022/09/12 08:41:48;;;;;;;;;7.80;6.60;;;;;19.61;68.49;99905.00;5027411;28;8849;-60
2022/09/12 08:44:16;;;;;;;;;10.40;9.60;;;;;19.71;68.21;99897.47;5026378;28;8840;-60
2022/09/12 08:46:45;;;;;;;;;12.20;10.40;;;;;19.83;67.87;99900.59;5029122;28;8841;-60
2022/09/12 08:49:13;;;;;;;;;10.60;9.60;;;;;19.96;67.96;99895.41;5030201;28;8825;-61
2022/09/12 08:51:40;;;;;;;;;9.40;8.20;;;;;20.08;67.61;99900.22;5030322;28;8845;-60
2022/09/12 08:54:08;;;;;;;;;10.00;10.00;;;;;20.19;67.51;99896.25;5029712;28;8825;-61
2022/09/12 08:56:35;;;;;;;;;11.60;10.20;;;;;20.29;67.07;99892.25;5027559;28;9521;-61
2022/09/12 08:59:03;;;;;;;;;13.20;11.60;;;;;20.39;67.02;99900.09;5027024;28;8824;-60
2022/09/12 09:01:30;;;;;;;;;11.00;10.00;;;;;20.47;67.05;99892.72;5028077;28;8867;-60
2022/09/12 09:03:58;;;;;;;;;17.20;14.60;;;;;20.57;67.12;99896.00;5027277;28;9542;-61
2022/09/12 09:06:26;;;;;;;;;10.00;10.00;;;;;20.64;66.90;99893.38;5026944;28;8840;-60
2022/09/12 09:08:55;;;;;;;;;11.60;10.20;;;;;20.72;66.81;99882.47;5026900;28;9533;-61
2022/09/12 09:11:23;;;;;;;;;12.20;9.60;;;;;20.82;66.55;99876.56;5028622;28;8849;-60
2022/09/12 09:16:35;;;;;;;;;11.60;10.60;;;;;21.02;66.62;99883.09;5027585;28;8860;-61
2022/09/12 09:19:03;;;;;;;;;11.00;10.00;;;;;21.16;66.40;99881.38;5027411;28;8841;-60
2022/09/12 09:21:30;;;;;;;;;7.80;7.00;;;;;21.31;65.84;99876.75;5028506;28;8851;-61
2022/09/12 09:23:58;;;;;;;;;10.80;10.80;;;;;21.43;65.79;99877.94;5027914;28;8969;-60
2022/09/12 09:26:26;;;;;;;;;10.40;9.00;;;;;21.54;65.25;99877.41;5027807;28;8832;-60
2022/09/12 09:28:54;;;;;;;;;12.00;11.20;;;;;21.64;65.79;99870.63;5027719;28;8909;-62
2022/09/12 09:31:22;;;;;;;;;8.80;8.20;;;;;21.75;64.95;99869.31;5027331;28;8828;-61
2022/09/12 09:33:49;;;;;;;;;7.60;7.60;;;;;21.89;64.75;99881.97;5029174;28;8828;-63
2022/09/12 09:36:17;;;;;;;;;11.40;10.20;;;;;22.02;64.30;99868.50;5029497;28;8910;-60
2022/09/12 09:38:45;;;;;;;;;10.00;8.80;;;;;22.16;64.30;99871.13;5028749;28;8916;-61
2022/09/12 09:41:13;;;;;;;;;9.40;9.40;;;;;22.31;64.27;99871.84;5028134;28;8840;-61
2022/09/12 09:43:40;;;;;;;;;11.80;10.80;;;;;22.43;63.64;99864.03;5029345;28;9509;-61
2022/09/12 09:46:09;;;;;;;;;12.00;11.00;;;;;22.45;63.45;99860.09;5028790;28;8864;-62
2022/09/12 09:48:36;;;;;;;;;9.00;8.00;;;;;22.43;63.75;99866.75;5027860;28;8860;-61
2022/09/12 09:51:05;;;;;;;;;9.00;8.00;;;;;22.36;63.82;99872.09;5028670;28;8837;-62
2022/09/12 09:53:33;;;;;;;;;10.60;8.80;;;;;22.37;64.20;99864.78;5029444;28;8893;-60
2022/09/12 09:56:02;;;;;;;;;11.40;10.20;;;;;22.44;64.07;99871.13;5028715;28;8832;-62
2022/09/12 09:58:29;;;;;;;;;10.60;9.80;;;;;22.72;63.13;99866.50;5028827;28;8876;-61
2022/09/12 10:00:57;;;;;;;;;10.00;8.00;;;;;23.01;62.45;99855.34;5029421;28;8987;-62
2022/09/12 10:03:25;;;;;;;;;9.20;8.40;;;;;23.10;62.37;99851.41;5028979;28;8841;-60
2022/09/12 10:05:52;;;;;;;;;9.20;6.40;;;;;23.24;62.43;99851.28;5029326;28;8936;-63
2022/09/12 10:08:20;;;;;;;;;8.80;8.60;;;;;23.67;61.61;99849.88;5029406;28;8848;-61
2022/09/12 10:10:48;;;;;;;;;8.20;8.20;;;;;24.14;60.33;99843.44;5030412;28;8832;-61
2022/09/12 10:13:16;;;;;;;;;9.60;9.00;;;;;24.56;59.70;99842.97;5029324;28;8844;-61
2022/09/12 10:15:44;;;;;;;;;5.00;5.00;;;;;25.03;58.36;99837.94;5028691;28;8837;-62
2022/09/12 10:18:11;;;;;;;;;9.00;9.00;;;;;25.17;58.21;99838.75;5027889;28;8840;-61
2022/09/12 10:20:39;;;;;;;;;9.60;9.20;;;;;24.99;58.79;99833.16;5026031;28;8872;-60
2022/09/12 10:23:07;;;;;;;;;6.00;5.00;;;;;24.76;59.46;99839.13;5025163;28;8821;-61
2022/09/12 10:25:34;;;;;;;;;5.80;5.40;;;;;24.70;59.27;99839.13;5023442;28;9564;-60
2022/09/12 10:28:02;;;;;;;;;3.00;2.60;;;;;24.82;60.00;99829.25;5024741;28;8833;-61
2022/09/12 10:30:30;;;;;;;;;8.40;8.40;;;;;25.24;58.70;99832.22;5025217;28;8832;-61
2022/09/12 10:32:58;;;;;;;;;7.00;7.00;;;;;25.87;57.19;99831.97;5025807;28;8837;-63
2022/09/12 10:35:25;;;;;;;;;7.00;7.00;;;;;26.64;55.82;99831.50;5025934;28;8891;-63
2022/09/12 10:37:53;;;;;;;;;7.40;6.60;;;;;27.06;55.23;99820.44;5027257;28;8825;-63
2022/09/12 10:40:20;;;;;;;;;5.00;4.60;;;;;27.18;55.47;99826.81;5028152;28;8817;-60
2022/09/12 10:42:48;;;;;;;;;6.60;6.60;;;;;27.27;54.86;99817.25;5028686;28;9557;-61
2022/09/12 10:45:16;;;;;;;;;6.80;6.60;;;;;27.53;54.57;99818.75;5029477;28;8855;-61
2022/09/12 10:47:43;;;;;;;;;7.80;7.00;;;;;27.57;54.49;99809.84;5029665;28;8849;-61
2022/09/12 10:50:11;;;;;;;;;6.00;4.00;;;;;27.27;55.38;99817.25;5028877;28;8841;-62
2022/09/12 10:52:49;;;;;;;;;7.80;7.80;;;;;27.06;56.25;99814.13;5032101;28;8833;-62
2022/09/12 10:55:17;;;;;;;;;7.40;7.40;;;;;27.14;56.55;99811.09;5033156;28;8840;-60
2022/09/12 10:57:44;;;;;;;;;7.40;6.40;;;;;27.39;55.58;99811.81;5032509;28;9525;-61
2022/09/12 11:00:15;;;;;;;;;4.00;3.60;;;;;27.75;55.13;99807.03;5032156;28;8845;-61
2022/09/12 11:02:43;;;;;;;;;7.00;7.00;;;;;27.80;54.63;99807.19;5031539;28;8841;-62
2022/09/12 11:05:11;;;;;;;;;7.80;7.00;;;;;27.45;54.69;99808.97;5031723;28;9518;-61
2022/09/12 11:07:38;;;;;;;;;7.60;7.60;;;;;26.84;55.88;99815.66;5031532;28;8852;-61
2022/09/12 11:10:06;;;;;;;;;4.00;3.60;;;;;26.71;56.45;99805.75;5032238;28;8824;-62
2022/09/12 11:12:33;;;;;;;;;6.60;5.40;;;;;27.22;55.19;99808.03;5032583;28;9530;-63
2022/09/12 11:15:01;;;;;;;;;6.00;4.80;;;;;27.88;53.09;99804.09;5032304;28;8821;-61
2022/09/12 11:17:29;;;;;;;;;6.00;6.00;;;;;28.47;52.01;99803.03;5031961;28;8839;-61
2022/09/12 11:19:56;;;;;;;;;4.00;4.00;;;;;29.03;50.24;99790.28;5030988;28;8825;-61
2022/09/12 11:22:24;;;;;;;;;6.60;6.00;;;;;29.66;49.88;99793.69;5031630;28;8916;-61
2022/09/12 11:24:57;;;;;;;;;7.00;7.00;;;;;30.19;48.51;99783.03;5030592;28;8836;-61
2022/09/12 11:27:25;;;;;;;;;9.40;8.20;;;;;30.63;47.88;99784.78;5031334;28;8913;-60
2022/09/12 11:29:53;;;;;;;;;6.40;6.40;;;;;31.10;47.42;99781.25;5030412;28;8839;-61
2022/09/12 11:32:20;;;;;;;;;5.00;4.00;;;;;31.66;46.54;99769.75;5031974;28;9545;-61
2022/09/12 11:34:48;;;;;;;;;6.20;5.80;;;;;32.19;45.27;99769.63;5031963;28;8849;-60
2022/09/12 11:37:16;;;;;;;;;4.20;4.00;;;;;32.46;45.20;99775.88;5032594;28;8861;-61
2022/09/12 11:39:44;;;;;;;;;4.80;4.80;;;;;31.85;46.23;99767.44;5032907;28;8832;-61
2022/09/12 11:42:12;;;;;;;;;8.80;7.60;;;;;31.76;46.66;99760.75;5031397;28;8855;-60